createdAt,value
2019-03-30T00:02:20.408Z,13.10
2019-03-30T00:04:53.593Z,13.48
2019-03-30T00:07:26.902Z,13.88
2019-03-30T00:09:59.977Z,15.70
2019-03-30T00:12:33.468Z,15.55
2019-03-30T00:15:07.656Z,16.10
2019-03-30T00:17:41.085Z,15.18
2019-03-30T00:20:13.874Z,14.63
2019-03-30T00:22:47.298Z,13.35
2019-03-30T00:25:20.383Z,12.90
2019-03-30T00:27:53.273Z,13.40
2019-03-30T00:30:26.557Z,12.95
2019-03-30T00:32:59.652Z,12.28
2019-03-30T00:38:04.293Z,12.68
2019-03-30T00:40:37.525Z,12.47
2019-03-30T00:45:41.769Z,12.95
2019-03-30T00:48:14.886Z,13.72
2019-03-30T00:50:48.216Z,13.13
2019-03-30T00:53:21.398Z,11.93
2019-03-30T00:55:54.724Z,12.00
2019-03-30T00:58:27.699Z,12.70
2019-03-30T01:01:00.311Z,11.83
2019-03-30T01:03:33.414Z,11.28
2019-03-30T01:06:06.776Z,10.82
2019-03-30T01:08:39.850Z,10.55
2019-03-30T01:11:13.237Z,10.45
2019-03-30T01:13:46.332Z,11.75
2019-03-30T01:16:19.485Z,11.08
2019-03-30T01:21:24.604Z,12.25
2019-03-30T01:29:03.747Z,10.98
2019-03-30T01:31:37.701Z,10.85
2019-03-30T01:34:11.039Z,11.30
2019-03-30T01:36:45.395Z,10.23
2019-03-30T01:41:50.016Z,9.68
2019-03-30T01:44:23.308Z,9.55
2019-03-30T01:49:27.754Z,9.60
2019-03-30T01:54:32.597Z,10.03
2019-03-30T01:57:06.807Z,10.32
2019-03-30T02:02:11.157Z,9.90
2019-03-30T02:07:15.845Z,9.45
2019-03-30T02:12:20.708Z,9.00
2019-03-30T02:17:25.018Z,11.10
2019-03-30T02:19:58.487Z,10.58
2019-03-30T02:22:31.743Z,9.33
2019-03-30T02:25:04.840Z,9.78
2019-03-30T02:30:09.180Z,9.10
2019-03-30T02:32:42.767Z,9.78
2019-03-30T02:35:15.687Z,9.48
2019-03-30T02:37:48.968Z,10.05
2019-03-30T02:40:21.504Z,10.35
2019-03-30T02:42:55.834Z,10.68
2019-03-30T02:48:00.492Z,11.08
2019-03-30T02:50:48.615Z,11.45
2019-03-30T02:53:09.145Z,11.40
2019-03-30T02:55:41.923Z,10.82
2019-03-30T02:58:15.047Z,11.28
2019-03-30T03:00:48.429Z,10.58
2019-03-30T03:03:21.501Z,11.10
2019-03-30T03:05:54.615Z,10.20
2019-03-30T03:10:59.207Z,10.48
2019-03-30T03:16:04.010Z,11.55
2019-03-30T03:18:37.099Z,12.30
2019-03-30T03:21:10.196Z,10.25
2019-03-30T03:23:43.545Z,10.53
2019-03-30T03:26:16.501Z,11.28
2019-03-30T03:28:49.811Z,10.60
2019-03-30T03:33:54.572Z,9.80
2019-03-30T03:36:27.632Z,12.25
2019-03-30T03:39:00.475Z,17.35
2019-03-30T03:41:35.305Z,13.78
2019-03-30T03:46:39.773Z,12.05
2019-03-30T03:49:13.232Z,11.45
2019-03-30T03:51:46.571Z,10.98
2019-03-30T03:54:20.306Z,11.30
2019-03-30T03:56:53.667Z,10.05
2019-03-30T03:59:28.443Z,11.10
2019-03-30T04:02:05.532Z,10.53
2019-03-30T04:04:40.374Z,10.28
2019-03-30T04:07:14.545Z,11.38
2019-03-30T04:09:50.084Z,10.58
2019-03-30T04:12:24.981Z,10.50
2019-03-30T04:14:59.605Z,10.43
2019-03-30T04:17:32.785Z,10.55
2019-03-30T04:20:06.243Z,15.05
2019-03-30T04:22:39.388Z,12.47
2019-03-30T04:25:12.518Z,14.98
2019-03-30T04:27:45.713Z,17.40
2019-03-30T04:33:01.169Z,19.87
2019-03-30T04:35:47.867Z,14.90
2019-03-30T04:38:21.169Z,12.65
2019-03-30T04:40:55.118Z,12.90
2019-03-30T04:43:28.453Z,12.10
2019-03-30T04:46:01.396Z,13.30
2019-03-30T04:48:34.741Z,12.13
2019-03-30T04:51:08.109Z,12.15
2019-03-30T04:53:41.465Z,12.07
2019-03-30T04:56:14.663Z,11.70
2019-03-30T04:58:47.977Z,11.97
2019-03-30T05:01:21.364Z,52.50
2019-03-30T05:06:26.314Z,24.55
2019-03-30T05:08:59.324Z,19.60
2019-03-30T05:11:32.716Z,21.15
2019-03-30T05:14:05.781Z,25.62
2019-03-30T05:16:38.732Z,24.57
2019-03-30T05:19:11.672Z,23.67
2019-03-30T05:21:44.993Z,20.08
2019-03-30T05:24:18.297Z,16.77
2019-03-30T05:29:22.747Z,14.78
2019-03-30T05:31:56.675Z,15.68
2019-03-30T05:34:29.965Z,18.07
2019-03-30T05:39:34.588Z,17.12
2019-03-30T05:42:07.729Z,17.27
2019-03-30T05:47:12.298Z,15.35
2019-03-30T05:49:45.685Z,18.35
2019-03-30T05:52:26.357Z,20.35
2019-03-30T05:54:53.951Z,21.23
2019-03-30T05:57:26.895Z,22.67
2019-03-30T06:00:00.033Z,23.32
2019-03-30T06:02:33.026Z,21.50
2019-03-30T06:05:06.842Z,21.93
2019-03-30T06:07:40.239Z,23.35
2019-03-30T06:10:12.732Z,23.20
2019-03-30T06:12:45.875Z,21.40
2019-03-30T06:15:18.974Z,20.65
2019-03-30T06:17:52.400Z,18.98
2019-03-30T06:20:25.552Z,18.37
2019-03-30T06:22:58.790Z,19.52
2019-03-30T06:25:31.854Z,19.32
2019-03-30T06:28:05.026Z,18.85
2019-03-30T06:30:38.134Z,17.50
2019-03-30T06:35:42.685Z,17.75
2019-03-30T06:40:47.695Z,16.75
2019-03-30T06:45:53.320Z,14.83
2019-03-30T06:48:26.345Z,16.35
2019-03-30T06:50:59.312Z,15.43
2019-03-30T06:53:32.404Z,14.90
2019-03-30T06:56:05.172Z,15.95
2019-03-30T06:58:38.564Z,13.58
2019-03-30T07:01:15.468Z,12.60
2019-03-30T07:03:48.665Z,13.53
2019-03-30T07:06:23.042Z,13.53
2019-03-30T07:08:58.127Z,15.80
2019-03-30T07:11:34.121Z,14.47
2019-03-30T07:14:07.353Z,15.08
2019-03-30T07:16:42.481Z,16.45
2019-03-30T07:19:16.152Z,16.15
2019-03-30T07:21:49.232Z,15.13
2019-03-30T07:24:22.389Z,15.30
2019-03-30T07:26:55.403Z,13.90
2019-03-30T07:29:28.252Z,12.45
2019-03-30T07:32:01.322Z,12.78
2019-03-30T07:34:34.956Z,13.32
2019-03-30T07:37:08.447Z,11.83
2019-03-30T07:39:41.210Z,13.60
2019-03-30T07:42:14.287Z,11.30
2019-03-30T07:44:47.817Z,10.82
2019-03-30T07:47:20.475Z,11.93
2019-03-30T07:49:53.540Z,13.70
2019-03-30T07:52:26.728Z,12.93
2019-03-30T07:57:32.684Z,11.50
2019-03-30T08:02:37.704Z,12.10
2019-03-30T08:05:10.790Z,12.05
2019-03-30T08:07:44.611Z,13.95
2019-03-30T08:10:21.351Z,12.35
2019-03-30T08:12:54.567Z,11.80
2019-03-30T08:17:59.776Z,14.98
2019-03-30T08:20:33.267Z,13.62
2019-03-30T08:23:06.585Z,12.90
2019-03-30T08:25:39.934Z,12.25
2019-03-30T08:30:45.231Z,11.30
2019-03-30T08:33:18.558Z,12.25
2019-03-30T08:38:22.684Z,12.40
2019-03-30T08:40:55.683Z,12.47
2019-03-30T08:43:28.734Z,12.50
2019-03-30T08:48:33.297Z,16.52
2019-03-30T08:51:06.323Z,11.03
2019-03-30T08:53:53.757Z,10.68
2019-03-30T08:56:14.536Z,11.57
2019-03-30T09:01:19.223Z,11.55
2019-03-30T09:03:52.456Z,11.53
2019-03-30T09:06:26.032Z,10.32
2019-03-30T09:08:59.108Z,10.18
2019-03-30T09:11:32.314Z,12.40
2019-03-30T09:16:37.127Z,10.38
2019-03-30T09:21:41.819Z,10.28
2019-03-30T09:24:14.866Z,10.65
2019-03-30T09:26:47.927Z,10.45
2019-03-30T09:29:20.646Z,10.43
2019-03-30T09:31:54.008Z,10.28
2019-03-30T09:36:58.643Z,10.10
2019-03-30T09:39:32.036Z,10.20
2019-03-30T09:42:05.151Z,10.00
2019-03-30T09:44:38.873Z,10.43
2019-03-30T09:47:12.036Z,9.65
2019-03-30T09:52:16.507Z,10.88
2019-03-30T09:54:50.026Z,9.45
2019-03-30T09:57:23.688Z,9.78
2019-03-30T09:59:56.698Z,9.50
2019-03-30T10:02:30.012Z,10.23
2019-03-30T10:05:03.455Z,9.25
2019-03-30T10:07:36.499Z,9.08
2019-03-30T10:10:10.118Z,11.25
2019-03-30T10:12:43.485Z,9.80
2019-03-30T10:15:16.770Z,9.10
2019-03-30T10:17:49.986Z,9.10
2019-03-30T10:22:54.923Z,8.75
2019-03-30T10:25:28.118Z,10.13
2019-03-30T10:28:01.666Z,9.18
2019-03-30T10:30:34.664Z,9.78
2019-03-30T10:33:08.042Z,10.25
2019-03-30T10:35:41.224Z,8.28
2019-03-30T10:40:45.924Z,8.68
2019-03-30T10:45:50.127Z,8.45
2019-03-30T10:48:23.414Z,8.65
2019-03-30T10:53:28.064Z,8.25
2019-03-30T10:56:01.109Z,7.85
2019-03-30T10:58:34.437Z,8.38
2019-03-30T11:01:07.497Z,8.93
2019-03-30T11:06:11.785Z,7.50
2019-03-30T11:08:45.271Z,7.90
2019-03-30T11:11:18.462Z,8.18
2019-03-30T11:16:23.281Z,8.23
2019-03-30T11:18:56.571Z,7.40
2019-03-30T11:24:01.082Z,7.75
2019-03-30T11:26:34.251Z,7.55
